Time;durP1;ratioP1;P1;durP2;ratioP2;P2;SDS_P1;SDS_P2;PMS_P1;PMS_P2;Temp;Humidity;BMP_temperature;BMP_pressure;BME280_temperature;BME280_humidity;BME280_pressure;Samples;Min_cycle;Max_cycle;Signal;HPM_P1;HPM_P2
2022/07/20 00:01:51;;;;;;;16.80;15.60;;;24.30;55.90;;;;;;4970328;28;20043;-82
2022/07/20 00:04:17;;;;;;;16.80;15.50;;;24.40;56.10;;;;;;4956024;29;20034;-82
2022/07/20 00:06:43;;;;;;;17.50;16.05;;;24.30;56.40;;;;;;4956055;29;20019;-82
2022/07/20 00:11:54;;;;;;;18.98;17.33;;;24.20;56.70;;;;;;4957287;28;20058;-82
2022/07/20 00:14:20;;;;;;;19.77;17.80;;;24.10;56.70;;;;;;4956006;29;20031;-82
2022/07/20 00:16:46;;;;;;;18.67;16.95;;;24.20;56.80;;;;;;4954558;28;20035;-82
2022/07/20 00:19:12;;;;;;;20.27;18.38;;;24.10;57.00;;;;;;4956169;29;20035;-82
2022/07/20 00:21:38;;;;;;;18.20;16.48;;;24.10;57.10;;;;;;4955907;28;20492;-83
2022/07/20 00:24:05;;;;;;;19.13;17.50;;;24.10;57.30;;;;;;4955592;29;20039;-82
2022/07/20 00:26:31;;;;;;;19.05;17.50;;;24.10;57.40;;;;;;4954911;28;20031;-82
2022/07/20 00:28:57;;;;;;;20.30;18.63;;;24.10;57.50;;;;;;4955648;29;20580;-82
2022/07/20 00:31:23;;;;;;;20.60;18.60;;;24.10;57.70;;;;;;4955227;28;20039;-82
2022/07/20 00:33:50;;;;;;;20.50;18.65;;;24.00;58.10;;;;;;4955620;29;20493;-83
2022/07/20 00:36:16;;;;;;;20.63;18.90;;;24.00;58.10;;;;;;4955384;28;20050;-82
2022/07/20 00:38:42;;;;;;;20.58;18.80;;;24.00;58.10;;;;;;4955361;29;20039;-82
2022/07/20 00:41:08;;;;;;;20.48;18.42;;;24.00;58.40;;;;;;4954572;29;20478;-82
2022/07/20 00:43:57;;;;;;;19.65;17.88;;;24.10;58.40;;;;;;4953812;29;20054;-82
2022/07/20 00:46:23;;;;;;;19.00;17.48;;;24.00;58.90;;;;;;4955211;28;20035;-82
2022/07/20 00:48:49;;;;;;;20.58;18.65;;;23.80;59.40;;;;;;4954065;28;20050;-82
2022/07/20 00:51:15;;;;;;;20.60;18.98;;;23.80;59.40;;;;;;4954208;29;20474;-82
2022/07/20 00:53:42;;;;;;;20.92;18.98;;;23.70;59.80;;;;;;4955022;29;20462;-82
2022/07/20 00:56:08;;;;;;;20.70;18.88;;;23.80;59.60;;;;;;4955299;29;20046;-82
2022/07/20 00:58:35;;;;;;;21.30;19.50;;;23.90;59.40;;;;;;4953784;29;20047;-82
2022/07/20 01:01:01;;;;;;;20.63;18.83;;;24.00;59.30;;;;;;4958035;28;20039;-82
2022/07/20 01:03:27;;;;;;;21.50;19.25;;;24.00;59.10;;;;;;4954881;29;20043;-82
2022/07/20 01:05:53;;;;;;;21.55;19.63;;;24.10;59.20;;;;;;4954216;29;20092;-82
2022/07/20 01:08:19;;;;;;;22.20;20.15;;;24.00;59.40;;;;;;4935620;29;20032;-82
2022/07/20 01:10:46;;;;;;;21.33;19.83;;;24.00;59.50;;;;;;4935875;29;20028;-82
2022/07/20 01:13:12;;;;;;;22.30;20.25;;;24.00;59.30;;;;;;4935768;29;20035;-82
2022/07/20 01:15:38;;;;;;;22.88;20.98;;;24.00;59.30;;;;;;4934179;28;20027;-82
2022/07/20 01:18:04;;;;;;;22.10;20.50;;;24.00;59.60;;;;;;4935737;29;20475;-81
2022/07/20 01:20:30;;;;;;;21.58;19.65;;;24.10;59.30;;;;;;4933851;29;20402;-82
2022/07/20 01:22:56;;;;;;;23.02;20.52;;;24.10;59.90;;;;;;4935007;29;20052;-82
2022/07/20 01:25:23;;;;;;;23.00;21.20;;;24.10;59.10;;;;;;4935481;29;20387;-81
2022/07/20 01:27:49;;;;;;;22.70;20.90;;;24.10;59.10;;;;;;4935499;29;20044;-82
2022/07/20 01:30:15;;;;;;;21.88;20.35;;;24.00;59.40;;;;;;4933850;28;20391;-82
2022/07/20 01:32:41;;;;;;;22.65;21.05;;;23.90;59.90;;;;;;4935381;29;20471;-82
2022/07/20 01:35:07;;;;;;;21.17;19.45;;;23.90;59.70;;;;;;4935716;29;20048;-82
2022/07/20 01:37:33;;;;;;;25.10;23.50;;;24.00;60.10;;;;;;4933585;29;20043;-82
2022/07/20 01:39:59;;;;;;;26.65;24.65;;;23.90;59.70;;;;;;4935305;29;20027;-81
2022/07/20 01:42:26;;;;;;;30.13;28.35;;;23.90;59.80;;;;;;4933973;29;20042;-82
2022/07/20 01:44:52;;;;;;;27.80;25.50;;;23.90;59.70;;;;;;4935093;29;20036;-82
2022/07/20 01:47:18;;;;;;;24.90;23.20;;;23.90;60.10;;;;;;4933451;28;20028;-82
2022/07/20 01:49:44;;;;;;;28.48;26.45;;;23.80;60.70;;;;;;4935034;29;20035;-83
2022/07/20 01:52:10;;;;;;;32.38;29.65;;;23.80;61.40;;;;;;4934733;29;20036;-84
2022/07/20 01:54:36;;;;;;;33.53;30.92;;;23.80;61.80;;;;;;4933937;29;20371;-83
2022/07/20 01:57:03;;;;;;;39.67;36.58;;;23.90;63.10;;;;;;4935021;29;20047;-83
2022/07/20 01:59:29;;;;;;;52.45;48.92;;;23.90;63.60;;;;;;4939342;28;20042;-83
2022/07/20 02:01:55;;;;;;;36.70;34.08;;;23.90;63.60;;;;;;4954892;28;20042;-82
2022/07/20 02:04:21;;;;;;;36.42;33.58;;;23.90;64.00;;;;;;4952591;28;20035;-83
2022/07/20 02:06:47;;;;;;;24.25;22.20;;;23.90;65.00;;;;;;4948400;29;20028;-82
2022/07/20 02:09:13;;;;;;;25.40;23.20;;;23.90;64.80;;;;;;4933889;29;20046;-83
2022/07/20 02:11:40;;;;;;;21.02;19.30;;;23.90;65.00;;;;;;4933552;29;20403;-82
2022/07/20 02:14:06;;;;;;;25.17;23.27;;;23.80;65.30;;;;;;4934780;29;20039;-83
2022/07/20 02:16:32;;;;;;;24.55;22.63;;;23.80;65.60;;;;;;4917165;29;20379;-82
2022/07/20 02:19:00;;;;;;;27.83;25.85;;;23.60;66.30;;;;;;4934561;29;20043;-83
2022/07/20 02:21:26;;;;;;;26.23;23.58;;;23.40;66.80;;;;;;4931960;29;20051;-83
2022/07/20 02:23:52;;;;;;;21.98;19.85;;;23.20;67.30;;;;;;4934632;29;20052;-84
2022/07/20 02:26:18;;;;;;;23.90;21.88;;;23.20;67.60;;;;;;4934609;29;20032;-85
2022/07/20 02:28:44;;;;;;;24.50;22.63;;;23.30;67.40;;;;;;4933388;29;20039;-86
2022/07/20 02:31:10;;;;;;;29.35;27.20;;;23.30;67.60;;;;;;4933976;28;20028;-85
2022/07/20 02:33:37;;;;;;;25.20;23.33;;;23.40;67.60;;;;;;4934695;29;20046;-86
2022/07/20 02:36:03;;;;;;;23.33;21.58;;;23.40;67.80;;;;;;4932907;29;20032;-86
2022/07/20 02:38:29;;;;;;;26.25;24.45;;;23.40;69.40;;;;;;4934335;29;20036;-88
2022/07/20 02:40:55;;;;;;;23.83;21.88;;;23.20;68.80;;;;;;4934313;29;20402;-88
2022/07/20 02:43:21;;;;;;;27.52;25.00;;;23.00;69.60;;;;;;4934426;29;20057;-88
2022/07/20 02:45:47;;;;;;;34.13;31.48;;;23.00;70.90;;;;;;4932618;28;20020;-87
2022/07/20 02:48:13;;;;;;;30.92;28.48;;;23.00;71.70;;;;;;4934172;29;20042;-87
2022/07/20 02:50:41;;;;;;;26.67;24.88;;;23.00;70.60;;;;;;4933492;29;20036;-87
2022/07/20 02:53:10;;;;;;;29.40;27.10;;;23.00;71.30;;;;;;4934217;29;20032;-86
2022/07/20 02:55:37;;;;;;;30.52;28.13;;;22.80;71.80;;;;;;4934225;29;20514;-86
2022/07/20 02:58:03;;;;;;;40.63;37.80;;;22.60;71.80;;;;;;4932646;29;20402;-86
2022/07/20 03:00:29;;;;;;;41.15;38.40;;;22.70;72.30;;;;;;4948695;28;20042;-86
2022/07/20 03:02:55;;;;;;;42.40;39.65;;;22.80;71.60;;;;;;4953053;29;20046;-88
2022/07/20 03:05:22;;;;;;;37.90;34.92;;;22.80;72.00;;;;;;4951617;29;20031;-86
2022/07/20 03:07:48;;;;;;;34.95;32.60;;;22.80;71.90;;;;;;4938523;29;20032;-87
2022/07/20 03:10:14;;;;;;;32.15;29.75;;;22.80;72.00;;;;;;4932501;29;20403;-86
2022/07/20 03:12:40;;;;;;;32.58;30.15;;;22.80;71.60;;;;;;4932725;29;20422;-87
2022/07/20 03:15:07;;;;;;;37.97;35.15;;;22.80;72.40;;;;;;4933641;28;20039;-85
2022/07/20 03:17:39;;;;;;;34.42;32.15;;;22.60;73.10;;;;;;4932713;29;20039;-86
2022/07/20 03:20:06;;;;;;;32.92;30.85;;;22.30;73.80;;;;;;4933485;29;20036;-85
2022/07/20 03:22:32;;;;;;;33.65;31.17;;;22.30;74.20;;;;;;4932522;29;20419;-85
2022/07/20 03:24:58;;;;;;;33.67;31.08;;;22.40;74.10;;;;;;4933749;29;20039;-84
2022/07/20 03:27:24;;;;;;;35.15;32.83;;;22.50;73.80;;;;;;4933740;29;20359;-84
2022/07/20 03:29:50;;;;;;;37.40;34.88;;;22.50;74.10;;;;;;4934300;29;20032;-83
2022/07/20 03:32:16;;;;;;;40.38;37.70;;;22.40;74.20;;;;;;4933154;28;20035;-84
2022/07/20 03:34:42;;;;;;;31.92;29.80;;;22.50;73.40;;;;;;4933426;29;20031;-83
2022/07/20 03:37:08;;;;;;;32.85;30.50;;;22.50;73.40;;;;;;4933712;29;20031;-84
2022/07/20 03:39:35;;;;;;;33.88;31.55;;;22.60;73.20;;;;;;4933564;29;20043;-83
2022/07/20 03:42:01;;;;;;;35.92;33.55;;;22.50;73.10;;;;;;4932315;29;20039;-84
2022/07/20 03:44:27;;;;;;;34.88;32.65;;;22.50;73.60;;;;;;4933544;29;20039;-84
2022/07/20 03:46:53;;;;;;;40.15;37.17;;;22.50;73.40;;;;;;4932539;28;20032;-83
2022/07/20 03:49:19;;;;;;;33.65;31.52;;;22.50;73.10;;;;;;4933417;29;20039;-83
2022/07/20 03:51:45;;;;;;;33.50;31.02;;;22.60;73.50;;;;;;4932428;29;20039;-84
2022/07/20 03:54:11;;;;;;;39.03;36.53;;;22.50;73.10;;;;;;4932431;29;20044;-84
2022/07/20 03:56:39;;;;;;;34.35;32.10;;;22.40;73.90;;;;;;4933516;29;20506;-83
2022/07/20 03:59:09;;;;;;;32.60;30.52;;;22.30;73.90;;;;;;4932143;29;20066;-84
2022/07/20 04:01:35;;;;;;;31.70;29.40;;;22.30;74.20;;;;;;4948066;28;20042;-84
2022/07/20 04:04:01;;;;;;;28.17;26.02;;;22.40;74.30;;;;;;4954863;29;20046;-84
2022/07/20 04:06:28;;;;;;;27.80;25.50;;;22.30;74.50;;;;;;4934957;29;20027;-84
2022/07/20 04:08:54;;;;;;;28.45;26.42;;;22.20;74.90;;;;;;4935963;29;20040;-83
2022/07/20 04:11:20;;;;;;;25.13;23.33;;;22.10;75.80;;;;;;4937018;29;20513;-83
2022/07/20 04:13:46;;;;;;;28.23;26.13;;;22.20;74.80;;;;;;4935659;29;20478;-83
2022/07/20 04:16:12;;;;;;;29.27;27.25;;;22.20;74.60;;;;;;4935975;28;20035;-83
2022/07/20 04:18:38;;;;;;;28.05;26.05;;;22.20;75.30;;;;;;4935524;29;20031;-83
2022/07/20 04:21:05;;;;;;;27.65;25.85;;;22.20;74.50;;;;;;4936871;29;20038;-84
2022/07/20 04:23:31;;;;;;;31.05;28.95;;;22.20;74.10;;;;;;4936426;29;20054;-83
2022/07/20 04:25:57;;;;;;;30.88;28.88;;;22.20;74.40;;;;;;4936580;29;20036;-83
2022/07/20 04:28:23;;;;;;;27.98;25.92;;;22.00;75.10;;;;;;4935427;29;20522;-83
2022/07/20 04:30:49;;;;;;;32.72;30.50;;;21.80;76.00;;;;;;4935868;28;20036;-83
2022/07/20 04:33:15;;;;;;;28.90;26.98;;;21.70;76.50;;;;;;4935242;29;20032;-83
2022/07/20 04:35:41;;;;;;;31.27;28.92;;;21.70;76.70;;;;;;4935516;29;20039;-84
2022/07/20 04:38:07;;;;;;;29.88;27.75;;;21.90;76.40;;;;;;4936146;29;20048;-85
2022/07/20 04:40:34;;;;;;;26.00;24.08;;;22.00;75.80;;;;;;4935017;29;20506;-85
2022/07/20 04:43:00;;;;;;;26.02;24.38;;;22.00;76.20;;;;;;4936091;29;20036;-85
2022/07/20 04:45:26;;;;;;;26.08;24.27;;;21.80;77.20;;;;;;4934442;28;20471;-85
2022/07/20 04:47:52;;;;;;;25.83;24.00;;;21.70;77.40;;;;;;4934986;29;20039;-84
2022/07/20 04:50:18;;;;;;;27.75;25.95;;;21.80;77.30;;;;;;4935887;29;20043;-84
2022/07/20 04:52:44;;;;;;;27.55;25.75;;;21.90;76.70;;;;;;4936001;29;20034;-84
2022/07/20 04:55:10;;;;;;;29.95;28.10;;;21.90;76.60;;;;;;4936222;29;20036;-84
2022/07/20 04:57:36;;;;;;;32.85;30.65;;;21.90;77.40;;;;;;4934878;29;20513;-84
2022/07/20 05:00:04;;;;;;;32.40;30.15;;;21.90;77.00;;;;;;4946641;28;20051;-83
2022/07/20 05:02:30;;;;;;;28.65;26.65;;;22.00;76.60;;;;;;4955045;28;20084;-84
2022/07/20 05:04:56;;;;;;;32.90;30.77;;;22.00;77.10;;;;;;4953486;29;20509;-84
2022/07/20 05:07:22;;;;;;;32.38;30.00;;;22.00;77.00;;;;;;4955011;29;20042;-84
2022/07/20 05:09:48;;;;;;;33.70;31.55;;;22.00;76.70;;;;;;4954020;29;20394;-84
2022/07/20 05:12:14;;;;;;;30.15;28.25;;;22.10;76.30;;;;;;4954659;28;20023;-84
2022/07/20 05:14:40;;;;;;;30.83;28.92;;;22.10;76.10;;;;;;4953257;29;20066;-84
2022/07/20 05:17:06;;;;;;;31.80;29.45;;;22.20;76.10;;;;;;4954481;28;20031;-84
2022/07/20 05:19:32;;;;;;;33.22;30.85;;;22.20;76.20;;;;;;4953529;28;20031;-84
2022/07/20 05:21:59;;;;;;;34.92;32.42;;;22.00;76.70;;;;;;4954897;29;20035;-83
2022/07/20 05:24:25;;;;;;;31.63;29.05;;;22.00;76.80;;;;;;4953622;29;20035;-84
2022/07/20 05:26:51;;;;;;;33.38;30.88;;;21.90;77.60;;;;;;4953601;29;20042;-84
2022/07/20 05:29:17;;;;;;;35.95;33.35;;;21.80;77.40;;;;;;4954420;29;20031;-84
2022/07/20 05:31:43;;;;;;;34.28;31.95;;;21.90;77.30;;;;;;4953013;28;20035;-84
2022/07/20 05:34:09;;;;;;;33.88;31.35;;;21.90;77.60;;;;;;4954351;29;20586;-84
2022/07/20 05:36:35;;;;;;;34.00;31.48;;;22.00;77.20;;;;;;4954628;29;20040;-84
2022/07/20 05:39:01;;;;;;;34.25;31.75;;;22.00;77.40;;;;;;4953080;29;20058;-83
2022/07/20 05:41:27;;;;;;;34.55;32.20;;;22.00;77.20;;;;;;4954468;29;20478;-83
2022/07/20 05:43:53;;;;;;;36.17;33.88;;;22.00;77.10;;;;;;4952718;29;20043;-84
2022/07/20 05:46:19;;;;;;;34.15;31.67;;;22.00;77.10;;;;;;4953847;28;20478;-84
2022/07/20 05:48:46;;;;;;;33.67;31.33;;;22.00;77.50;;;;;;4937123;29;20043;-84
2022/07/20 05:51:12;;;;;;;33.97;31.55;;;21.90;77.50;;;;;;4954431;29;20023;-84
2022/07/20 05:53:38;;;;;;;34.28;32.15;;;22.00;77.40;;;;;;4954144;29;20038;-84
2022/07/20 05:56:05;;;;;;;35.22;32.72;;;21.90;77.50;;;;;;4954065;29;20023;-83
2022/07/20 05:58:31;;;;;;;35.20;32.90;;;21.90;77.30;;;;;;4936593;29;20054;-83
2022/07/20 06:00:57;;;;;;;34.25;31.83;;;22.00;77.20;;;;;;4940934;28;20112;-83
2022/07/20 06:03:23;;;;;;;33.03;30.73;;;22.00;77.10;;;;;;4953873;29;20039;-83
2022/07/20 06:05:49;;;;;;;32.92;30.85;;;22.00;77.20;;;;;;4938877;29;20463;-83
2022/07/20 06:08:15;;;;;;;32.45;30.20;;;22.00;77.50;;;;;;4950530;29;20039;-83
2022/07/20 06:10:41;;;;;;;33.05;30.95;;;21.90;77.90;;;;;;4936780;29;20050;-83
2022/07/20 06:13:08;;;;;;;33.78;31.58;;;21.80;78.20;;;;;;4952383;28;20050;-83
2022/07/20 06:15:34;;;;;;;34.42;31.92;;;21.80;78.30;;;;;;4953286;28;20050;-83
2022/07/20 06:18:01;;;;;;;34.20;31.58;;;21.80;78.40;;;;;;4953816;29;20027;-83
2022/07/20 06:20:27;;;;;;;33.65;31.58;;;21.90;78.40;;;;;;4952511;29;20034;-83
2022/07/20 06:22:53;;;;;;;31.67;29.67;;;22.00;78.20;;;;;;4936272;29;20791;-83
2022/07/20 06:25:19;;;;;;;33.40;31.30;;;22.00;77.90;;;;;;4952911;28;20039;-83
2022/07/20 06:27:45;;;;;;;34.17;31.55;;;22.10;77.60;;;;;;4952057;29;20035;-83
2022/07/20 06:30:12;;;;;;;33.92;31.67;;;22.10;77.60;;;;;;4950935;28;20054;-83
2022/07/20 06:32:38;;;;;;;33.35;31.02;;;22.10;78.90;;;;;;4935362;29;20054;-82
2022/07/20 06:35:05;;;;;;;32.55;30.35;;;22.10;78.50;;;;;;4953398;28;20054;-83
2022/07/20 06:37:31;;;;;;;34.15;31.77;;;22.20;78.60;;;;;;4957466;28;20023;-82
2022/07/20 06:39:57;;;;;;;43.67;40.75;;;22.30;79.20;;;;;;4952145;29;20474;-82
2022/07/20 06:42:23;;;;;;;47.05;44.30;;;22.60;78.50;;;;;;4953197;29;20031;-83
2022/07/20 06:44:49;;;;;;;62.80;59.05;;;22.80;78.30;;;;;;4953182;29;20050;-83
2022/07/20 06:47:15;;;;;;;57.75;54.45;;;23.10;76.70;;;;;;4952901;28;20116;-82
2022/07/20 06:49:41;;;;;;;65.00;61.30;;;23.20;75.90;;;;;;4952276;28;20050;-83
2022/07/20 06:52:07;;;;;;;55.63;52.45;;;23.40;75.30;;;;;;4952741;28;20046;-83
2022/07/20 06:54:33;;;;;;;50.53;47.45;;;23.50;74.80;;;;;;4953223;29;20035;-83
2022/07/20 06:57:00;;;;;;;51.53;48.40;;;23.50;74.60;;;;;;4951683;29;20035;-83
2022/07/20 06:59:26;;;;;;;55.35;51.92;;;23.50;74.20;;;;;;4955567;28;20051;-83
2022/07/20 07:01:52;;;;;;;45.88;43.13;;;23.50;73.90;;;;;;4954396;28;20043;-82
2022/07/20 07:04:18;;;;;;;56.20;52.83;;;23.50;74.10;;;;;;4951481;29;20417;-83
2022/07/20 07:06:45;;;;;;;52.33;49.20;;;23.60;73.90;;;;;;4946617;29;20495;-83
2022/07/20 07:09:11;;;;;;;38.33;36.03;;;23.70;74.10;;;;;;4934043;29;20470;-83
2022/07/20 07:11:37;;;;;;;37.60;35.30;;;23.80;72.80;;;;;;4933492;29;20474;-83
2022/07/20 07:14:04;;;;;;;43.50;40.95;;;23.90;71.80;;;;;;4933927;29;20043;-83
2022/07/20 07:16:30;;;;;;;42.28;39.70;;;24.00;71.70;;;;;;4932336;28;20024;-83
2022/07/20 07:18:57;;;;;;;40.17;37.80;;;24.00;71.70;;;;;;4933904;29;20094;-83
2022/07/20 07:21:23;;;;;;;39.30;36.90;;;23.80;71.10;;;;;;4932777;29;20031;-83
2022/07/20 07:23:49;;;;;;;40.33;37.95;;;23.90;71.60;;;;;;4932565;29;20044;-83
2022/07/20 07:26:17;;;;;;;37.35;35.10;;;23.90;71.60;;;;;;4933573;29;20031;-83
2022/07/20 07:28:43;;;;;;;38.17;36.00;;;24.00;72.20;;;;;;4933637;29;20043;-83
2022/07/20 07:31:09;;;;;;;41.85;39.53;;;24.20;72.20;;;;;;4933032;28;20040;-83
2022/07/20 07:33:36;;;;;;;37.05;34.85;;;24.40;72.30;;;;;;4933668;29;20035;-83
2022/07/20 07:36:02;;;;;;;38.88;36.58;;;24.60;71.00;;;;;;4934535;29;20191;-83
2022/07/20 07:38:28;;;;;;;29.10;27.17;;;24.90;69.10;;;;;;4939624;29;20032;-83
2022/07/20 07:40:54;;;;;;;27.75;25.90;;;24.90;68.10;;;;;;4937285;29;20489;-83
2022/07/20 07:43:21;;;;;;;28.90;27.23;;;25.00;67.70;;;;;;4937195;29;20039;-83
2022/07/20 07:45:47;;;;;;;27.80;26.17;;;25.00;67.30;;;;;;4937082;28;20032;-83
2022/07/20 07:48:13;;;;;;;22.00;20.60;;;25.10;67.10;;;;;;4920545;29;20039;-84
2022/07/20 07:50:40;;;;;;;26.83;25.25;;;25.20;66.60;;;;;;4935824;29;20409;-83
2022/07/20 07:53:07;;;;;;;28.85;26.95;;;25.30;67.30;;;;;;4935813;29;20024;-84
2022/07/20 07:55:37;;;;;;;22.77;21.10;;;25.40;66.20;;;;;;4935439;29;20051;-83
2022/07/20 07:58:05;;;;;;;22.75;21.13;;;25.50;65.40;;;;;;4937029;29;20486;-83
2022/07/20 08:00:31;;;;;;;26.00;24.38;;;25.50;64.50;;;;;;4952260;28;20478;-83
2022/07/20 08:02:57;;;;;;;27.13;25.42;;;25.50;64.10;;;;;;4956077;29;20398;-84
2022/07/20 08:05:23;;;;;;;27.73;26.08;;;25.50;64.40;;;;;;4955058;28;20051;-84
2022/07/20 08:07:49;;;;;;;23.20;21.73;;;25.60;65.00;;;;;;4925467;29;20036;-83
2022/07/20 08:10:15;;;;;;;27.35;25.55;;;25.70;64.40;;;;;;4935453;29;20040;-83
2022/07/20 08:12:43;;;;;;;28.90;27.23;;;25.80;64.40;;;;;;4935541;29;20032;-84
2022/07/20 08:15:10;;;;;;;32.92;31.23;;;25.80;64.00;;;;;;4935220;28;20402;-83
2022/07/20 08:17:36;;;;;;;37.00;34.75;;;25.70;62.70;;;;;;4936953;29;20040;-84
2022/07/20 08:20:06;;;;;;;37.50;35.20;;;25.60;63.30;;;;;;4936866;29;20035;-83
2022/07/20 08:22:33;;;;;;;33.10;31.15;;;25.50;63.00;;;;;;4919838;29;20042;-83
2022/07/20 08:24:59;;;;;;;32.35;30.45;;;25.50;62.70;;;;;;4935393;29;20043;-83
2022/07/20 08:27:25;;;;;;;30.73;28.80;;;25.50;63.10;;;;;;4935343;29;20035;-83
2022/07/20 08:29:57;;;;;;;34.88;33.05;;;25.60;62.50;;;;;;4936787;29;20035;-83
2022/07/20 08:32:25;;;;;;;38.95;36.75;;;25.60;61.60;;;;;;4935766;28;20040;-83
2022/07/20 08:34:51;;;;;;;37.10;35.10;;;25.40;62.30;;;;;;4935388;29;20027;-83
2022/07/20 08:37:17;;;;;;;37.47;35.10;;;25.40;62.40;;;;;;4934914;29;20039;-83
2022/07/20 08:39:43;;;;;;;36.72;34.42;;;25.30;62.10;;;;;;4936821;29;20027;-83
2022/07/20 08:42:10;;;;;;;37.22;35.03;;;25.30;62.60;;;;;;4936271;29;20494;-83
2022/07/20 08:44:38;;;;;;;37.58;35.47;;;25.30;62.70;;;;;;4936230;29;20047;-83
2022/07/20 08:47:04;;;;;;;40.60;38.40;;;25.30;62.20;;;;;;4935894;28;20040;-83
2022/07/20 08:49:30;;;;;;;38.78;36.58;;;25.10;62.30;;;;;;4934734;29;20027;-83
2022/07/20 08:51:58;;;;;;;34.70;32.70;;;25.10;62.90;;;;;;4934910;29;20378;-83
2022/07/20 08:54:25;;;;;;;29.33;27.52;;;25.20;62.70;;;;;;4935347;29;20402;-83
2022/07/20 08:56:51;;;;;;;24.60;23.20;;;25.50;62.90;;;;;;4935280;29;20028;-83
2022/07/20 08:59:17;;;;;;;26.42;24.88;;;25.90;61.30;;;;;;4938850;28;20402;-83
2022/07/20 09:02:03;;;;;;;25.90;24.27;;;26.30;60.60;;;;;;4957931;28;20043;-83
2022/07/20 09:04:29;;;;;;;39.55;37.40;;;26.40;58.30;;;;;;4953295;29;20051;-83
2022/07/20 09:06:55;;;;;;;51.75;48.67;;;26.40;58.10;;;;;;4947160;28;20023;-84
2022/07/20 09:09:21;;;;;;;50.95;48.00;;;26.40;58.20;;;;;;4934716;29;20036;-84
2022/07/20 09:11:48;;;;;;;46.80;44.17;;;26.40;57.60;;;;;;4935953;29;20471;-83
2022/07/20 09:14:34;;;;;;;44.92;42.60;;;26.40;57.30;;;;;;4934539;29;20043;-83
2022/07/20 09:17:00;;;;;;;42.42;40.03;;;26.30;57.30;;;;;;4934240;28;20057;-83
2022/07/20 09:19:27;;;;;;;41.17;38.97;;;26.30;57.00;;;;;;4918956;29;20038;-83
2022/07/20 09:21:53;;;;;;;40.08;37.60;;;26.20;56.90;;;;;;4918793;29;20054;-83
2022/07/20 09:24:19;;;;;;;32.00;30.20;;;26.30;57.50;;;;;;4934179;29;20039;-83
2022/07/20 09:26:45;;;;;;;31.67;29.80;;;26.30;57.10;;;;;;4935623;29;20428;-83
2022/07/20 09:29:11;;;;;;;31.67;29.88;;;26.20;57.40;;;;;;4934458;29;20035;-83
2022/07/20 09:31:38;;;;;;;32.10;30.33;;;26.00;57.90;;;;;;4917898;29;20032;-83
2022/07/20 09:34:09;;;;;;;33.20;31.20;;;25.90;58.20;;;;;;4935318;29;20032;-83
2022/07/20 09:36:45;;;;;;;31.65;29.90;;;26.00;58.70;;;;;;4934509;29;20031;-83
2022/07/20 09:39:15;;;;;;;24.38;22.88;;;26.10;58.80;;;;;;4935151;29;20027;-83
2022/07/20 09:41:43;;;;;;;28.33;26.77;;;26.30;58.30;;;;;;4933974;29;20038;-84
2022/07/20 09:44:10;;;;;;;41.05;38.88;;;26.60;58.80;;;;;;4935032;29;20042;-84
2022/07/20 09:46:37;;;;;;;43.70;41.30;;;26.90;56.90;;;;;;4933596;28;20043;-83
2022/07/20 09:49:07;;;;;;;41.95;39.78;;;27.20;56.30;;;;;;4935260;29;20064;-84
2022/07/20 09:51:41;;;;;;;37.35;35.42;;;27.40;55.70;;;;;;4933805;29;20032;-83
2022/07/20 09:54:12;;;;;;;26.27;24.58;;;27.70;54.90;;;;;;4919229;29;20036;-84
2022/07/20 09:56:40;;;;;;;27.52;26.02;;;27.90;54.80;;;;;;4935076;29;20050;-83
2022/07/20 09:59:09;;;;;;;35.25;33.15;;;28.00;54.40;;;;;;4934892;29;20095;-84
2022/07/20 10:01:36;;;;;;;33.70;31.88;;;28.00;54.30;;;;;;4932157;28;20398;-84
2022/07/20 10:04:05;;;;;;;32.28;30.30;;;28.10;54.00;;;;;;4967199;28;20386;-84
2022/07/20 10:06:31;;;;;;;32.72;30.58;;;28.10;54.20;;;;;;4937958;29;20054;-84
2022/07/20 10:08:57;;;;;;;31.67;29.60;;;28.00;54.90;;;;;;4952784;28;20036;-84
2022/07/20 10:11:24;;;;;;;32.40;30.40;;;28.10;54.50;;;;;;4953991;29;20031;-84
2022/07/20 10:13:51;;;;;;;29.40;27.77;;;28.20;53.20;;;;;;4952638;28;20387;-84
2022/07/20 10:16:46;;;;;;;29.77;28.17;;;28.20;52.80;;;;;;4951696;28;20489;-84
2022/07/20 10:19:12;;;;;;;29.83;28.23;;;28.00;53.20;;;;;;4953469;29;20036;-84
2022/07/20 10:21:46;;;;;;;26.67;25.27;;;27.50;55.80;;;;;;4952553;29;20382;-84
2022/07/20 10:24:29;;;;;;;27.27;25.77;;;27.30;56.50;;;;;;4953646;29;20034;-83
2022/07/20 10:27:19;;;;;;;22.90;21.70;;;27.10;56.40;;;;;;4952282;28;20027;-83
2022/07/20 10:29:52;;;;;;;21.70;20.30;;;26.90;58.00;;;;;;4953639;29;20038;-83
2022/07/20 10:32:21;;;;;;;23.60;22.23;;;26.80;57.20;;;;;;4952078;28;20031;-83
2022/07/20 10:34:48;;;;;;;26.98;25.52;;;26.80;57.40;;;;;;4952394;28;20031;-83
2022/07/20 10:37:36;;;;;;;30.17;28.40;;;26.80;56.20;;;;;;4936533;29;20046;-84
2022/07/20 10:40:15;;;;;;;33.22;31.48;;;26.90;55.90;;;;;;4953410;28;20047;-83
2022/07/20 10:42:48;;;;;;;24.08;22.75;;;26.90;55.40;;;;;;4953736;28;20478;-83
2022/07/20 10:45:22;;;;;;;28.55;26.95;;;26.90;55.00;;;;;;4953100;28;20489;-84
2022/07/20 10:47:55;;;;;;;38.40;36.35;;;26.90;56.00;;;;;;4952987;28;20047;-84
2022/07/20 10:50:26;;;;;;;30.70;29.20;;;27.20;54.80;;;;;;4953533;29;20456;-84
2022/07/20 10:52:56;;;;;;;26.73;25.33;;;27.50;53.70;;;;;;4953205;29;20035;-84
2022/07/20 10:55:37;;;;;;;27.70;26.30;;;27.60;52.60;;;;;;4951980;28;20043;-84
2022/07/20 10:58:10;;;;;;;35.72;33.88;;;27.80;51.20;;;;;;4953079;28;20039;-84
2022/07/20 11:00:37;;;;;;;32.58;30.98;;;28.00;50.80;;;;;;4955847;28;20401;-83
2022/07/20 11:03:10;;;;;;;31.75;29.85;;;28.20;50.50;;;;;;4951376;29;20050;-84
2022/07/20 11:05:37;;;;;;;29.55;28.08;;;28.30;49.90;;;;;;4939403;29;20050;-84
2022/07/20 11:08:09;;;;;;;33.22;31.52;;;28.50;49.50;;;;;;4949337;29;20498;-83
2022/07/20 11:10:36;;;;;;;31.35;29.75;;;28.60;48.00;;;;;;4952473;28;20031;-84
2022/07/20 11:13:03;;;;;;;35.30;33.50;;;28.60;47.20;;;;;;4951867;29;20038;-84
2022/07/20 11:15:54;;;;;;;35.00;33.13;;;28.70;47.90;;;;;;4952766;28;20032;-84
2022/07/20 11:18:21;;;;;;;41.20;38.95;;;28.90;47.80;;;;;;4952445;28;20047;-84
2022/07/20 11:20:51;;;;;;;39.30;37.30;;;29.00;47.80;;;;;;4953029;29;20027;-83
2022/07/20 11:23:18;;;;;;;40.15;38.20;;;29.30;46.90;;;;;;4952965;29;20027;-84
2022/07/20 11:25:58;;;;;;;38.33;36.42;;;29.40;46.40;;;;;;4952745;29;20047;-84
2022/07/20 11:28:29;;;;;;;38.45;36.58;;;29.50;46.70;;;;;;4951729;28;20028;-84
2022/07/20 11:30:56;;;;;;;34.38;32.65;;;29.60;46.90;;;;;;4951997;28;20048;-84
2022/07/20 11:33:33;;;;;;;39.95;37.92;;;29.60;46.50;;;;;;4951634;29;20032;-83
2022/07/20 11:36:21;;;;;;;44.47;42.17;;;29.70;45.80;;;;;;4952994;29;20038;-84
2022/07/20 11:38:49;;;;;;;48.17;45.78;;;29.70;45.60;;;;;;4952901;29;20039;-84
2022/07/20 11:41:20;;;;;;;43.85;41.55;;;29.80;45.10;;;;;;4953046;29;20477;-83
2022/07/20 11:43:46;;;;;;;46.63;44.08;;;29.80;45.80;;;;;;4952759;29;20381;-84
2022/07/20 11:46:13;;;;;;;56.90;53.83;;;29.80;45.70;;;;;;4951828;28;20383;-84
2022/07/20 11:48:40;;;;;;;40.65;38.42;;;29.80;46.10;;;;;;4951680;29;20494;-84
2022/07/20 11:51:06;;;;;;;37.22;35.20;;;29.90;46.50;;;;;;4952919;29;20035;-84
2022/07/20 11:53:34;;;;;;;40.10;37.95;;;30.00;46.30;;;;;;4952767;29;20031;-84
2022/07/20 11:56:02;;;;;;;38.67;36.58;;;30.20;45.70;;;;;;4952791;28;20228;-84
2022/07/20 11:58:29;;;;;;;52.72;50.05;;;30.30;45.60;;;;;;4951011;29;20046;-83
2022/07/20 12:00:55;;;;;;;51.90;49.30;;;30.50;44.20;;;;;;4956106;28;20043;-84
2022/07/20 12:03:23;;;;;;;54.63;51.88;;;30.60;44.60;;;;;;4952453;29;20038;-84
2022/07/20 12:05:50;;;;;;;55.53;52.63;;;30.70;43.30;;;;;;4951226;29;20486;-85
2022/07/20 12:08:18;;;;;;;59.50;56.53;;;30.70;42.70;;;;;;4951120;29;20409;-84
2022/07/20 12:10:45;;;;;;;56.88;53.95;;;30.70;43.30;;;;;;4953025;28;20050;-84
2022/07/20 12:13:13;;;;;;;49.75;47.15;;;30.80;43.30;;;;;;4952642;29;20023;-85
2022/07/20 12:15:39;;;;;;;45.03;42.58;;;30.70;42.20;;;;;;4950155;28;20035;-84
2022/07/20 12:18:05;;;;;;;50.25;47.58;;;30.70;43.20;;;;;;4951193;28;20031;-84
2022/07/20 12:20:32;;;;;;;48.92;46.42;;;30.60;42.10;;;;;;4967124;28;20036;-84
2022/07/20 12:22:59;;;;;;;49.65;47.00;;;30.50;41.70;;;;;;4952129;28;20039;-84
2022/07/20 12:25:40;;;;;;;39.55;37.35;;;30.30;42.30;;;;;;4956024;29;20449;-84
2022/07/20 12:28:07;;;;;;;41.13;39.05;;;30.10;43.60;;;;;;4954694;29;20042;-84
2022/07/20 12:30:36;;;;;;;50.92;48.30;;;30.30;43.70;;;;;;4955445;28;20035;-84
2022/07/20 12:33:10;;;;;;;46.10;43.83;;;30.40;42.60;;;;;;4954718;29;20046;-84